Sd416 Nippon — SKPF — position and weather

sailwx.info

Track history (hours):
 
Tides and Currents Weather Stations Pressure Air Temp Water Temp Dewpoint Dewpoint Depression Visibility Wind Speed Wind Dir Waves Ship Positions

Sd416 Nippon

Last reported at 2016-Sep-25 00:33 UTC. Time now 2016-Sep-25 02:07 UTC.
Position N 58°56' E 011°10'.

Length 17 m; draft 2.5 m.

Type: Fishing. MMSI: 266163000.

Date/timePositionNaut miles runAvg speedWind from/ knotsBaromVisibWave heightAir tempDewpointWater temp
2016-Sep-25 00:33N 58°56' E 011°10'0 0.0
2016-Sep-24 22:33N 58°56' E 011°10'0 0.0
2016-Sep-24 21:33N 58°56' E 011°10'0 0.0
2016-Sep-24 19:33N 58°56' E 011°10'0 0.0
2016-Sep-24 18:33N 58°56' E 011°10'0 0.0
2016-Sep-24 17:33N 58°56' E 011°10'0 0.0
2016-Sep-24 16:33N 58°56' E 011°10'0 0.0
2016-Sep-24 14:33N 58°56' E 011°10'0 0.0
2016-Sep-24 12:33N 58°56' E 011°10'0 0.0
2016-Sep-24 10:33N 58°56' E 011°10'0 0.0
2016-Sep-24 09:33N 58°56' E 011°10'0 0.0
2016-Sep-24 03:33N 58°56' E 011°10'0 0.0
2016-Sep-24 02:33N 58°56' E 011°10'0 0.0
2016-Sep-24 01:33N 58°56' E 011°10'0 0.0
2016-Sep-24 00:33N 58°56' E 011°10'0 0.0
2016-Sep-23 19:33N 58°56' E 011°10'0 0.0
2016-Sep-23 17:33N 58°56' E 011°10'0 0.0
2016-Sep-23 16:33N 58°56' E 011°10'0 0.0
2016-Sep-23 15:33N 58°56' E 011°10'0 0.0
2016-Sep-23 13:33N 58°56' E 011°10'0 0.0
2016-Sep-23 09:33N 58°56' E 011°10'0 0.0
2016-Sep-23 06:33N 58°56' E 011°10'0 0.0
2016-Sep-23 04:33N 58°56' E 011°10'0 0.0
2016-Sep-23 03:33N 58°56' E 011°10'0 0.0
2016-Sep-23 02:33N 58°56' E 011°10'0 0.0
2016-Sep-23 01:33N 58°56' E 011°10'0 0.0
2016-Sep-23 00:33N 58°56' E 011°10'0 0.0
2016-Sep-22 23:33N 58°56' E 011°10'0 0.0
2016-Sep-22 20:33N 58°56' E 011°10'0 0.0
2016-Sep-22 12:33N 58°56' E 011°10'0 0.0
2016-Sep-22 04:33N 58°56' E 011°10'0 0.0
2016-Sep-22 03:33N 58°56' E 011°10'0 0.0
2016-Sep-22 00:33N 58°56' E 011°10'0 0.0
2016-Sep-21 23:33N 58°56' E 011°10'0 0.0
2016-Sep-21 22:33N 58°56' E 011°10'0 0.0
2016-Sep-21 19:33N 58°56' E 011°10'0 0.0
2016-Sep-21 16:33N 58°56' E 011°10'33 4.7
2016-Sep-21 09:33N 58°36' E 010°20'1 1.4
2016-Sep-21 08:33N 58°35' E 010°21'4 1.3
2016-Sep-21 05:33N 58°31' E 010°25'3 1.4
2016-Sep-21 03:33N 58°29' E 010°28'1 1.4
2016-Sep-21 02:33N 58°28' E 010°29'5 0.5
2016-Sep-20 17:33N 58°32' E 010°26'4 1.3
2016-Sep-20 14:33N 58°29' E 010°30'1 1.4
2016-Sep-20 13:33N 58°27' E 010°31'6 1.7
2016-Sep-20 10:18N 58°31' E 010°23'3 1.5
2016-Sep-20 08:33N 58°34' E 010°24'1 1.4
2016-Sep-20 07:33N 58°33' E 010°24'7 1.3
2016-Sep-20 02:33N 58°27' E 010°31'3 1.0
2016-Sep-19 23:33N 58°24' E 010°29'11 2.7
2016-Sep-19 19:33N 58°35' E 010°24'2 1.5
2016-Sep-19 18:32N 58°34' E 010°26'3 1.5
2016-Sep-19 16:33N 58°31' E 010°27'5 1.3
2016-Sep-19 12:33N 58°26' E 010°30'2 1.7
2016-Sep-19 11:32N 58°24' E 010°30'14 6.8
2016-Sep-19 09:32N 58°37' E 010°19'2 1.2
2016-Sep-19 07:33N 58°35' E 010°22'1 1.4
2016-Sep-19 06:33N 58°34' E 010°24'5 1.6
2016-Sep-19 03:33N 58°30' E 010°28'2 1.5
2016-Sep-19 02:33N 58°29' E 010°30'3 1.4
2016-Sep-19 00:33N 58°26' E 010°30'10 2.0
2016-Sep-18 19:33N 58°33' E 010°43'27 6.8
2016-Sep-18 15:33N 58°56' E 011°10'0 0.0
2016-Sep-18 14:33N 58°56' E 011°10'0 0.0
2016-Sep-18 10:33N 58°56' E 011°10'0 0.0
2016-Sep-18 09:33N 58°56' E 011°10'0 0.0
2016-Sep-18 02:33N 58°56' E 011°10'0 0.0
2016-Sep-18 01:33N 58°56' E 011°10'0 0.0
2016-Sep-18 00:33N 58°56' E 011°10'0 0.0
2016-Sep-17 22:33N 58°56' E 011°10'0 0.0
2016-Sep-17 21:33N 58°56' E 011°10'0 0.0
2016-Sep-17 20:33N 58°56' E 011°10'0 0.0
2016-Sep-17 19:16N 58°56' E 011°10'0 0.0
2016-Sep-17 13:33N 58°56' E 011°10'0 0.0
2016-Sep-17 12:33N 58°56' E 011°10'0 0.0
2016-Sep-17 10:33N 58°56' E 011°10'0 0.0
2016-Sep-17 09:33N 58°56' E 011°10'0 0.0
2016-Sep-17 08:33N 58°56' E 011°10'0 0.0
2016-Sep-17 07:33N 58°56' E 011°10'0 0.0
2016-Sep-17 05:33N 58°56' E 011°10'0 0.0
2016-Sep-17 04:33N 58°56' E 011°10'0 0.0
2016-Sep-17 00:33N 58°56' E 011°10'0 0.0
2016-Sep-16 17:33N 58°56' E 011°10'0 0.0
2016-Sep-16 15:33N 58°56' E 011°10'0 0.0
2016-Sep-16 12:33N 58°56' E 011°10'0 0.0
2016-Sep-16 09:33N 58°56' E 011°10'0 0.0
2016-Sep-16 07:33N 58°56' E 011°10'0 0.0
2016-Sep-16 03:33N 58°56' E 011°10'0 0.0
2016-Sep-16 02:33N 58°56' E 011°10'0 0.0
2016-Sep-16 00:33N 58°56' E 011°10'0 0.0
2016-Sep-15 22:33N 58°56' E 011°10'0 0.0
2016-Sep-15 21:33N 58°56' E 011°10'0 0.0
2016-Sep-15 20:33N 58°56' E 011°10'0 0.0
2016-Sep-15 18:33N 58°56' E 011°10'0 0.0
2016-Sep-15 12:33N 58°56' E 011°10'0 0.0
2016-Sep-15 11:33N 58°56' E 011°10'0 0.0
2016-Sep-15 04:33N 58°56' E 011°10'0 0.0
2016-Sep-15 03:33N 58°56' E 011°10'0 0.0
2016-Sep-15 01:33N 58°56' E 011°10'  
Track history (hours):
 
Tides and Currents Weather Stations Pressure Air Temp Water Temp Dewpoint Dewpoint Depression Visibility Wind Speed Wind Dir Waves Ship Positions

Sd416 Nippon

Last reported at 2016-Sep-25 00:33 UTC. Time now 2016-Sep-25 02:07 UTC.
Position N 58°56' E 011°10'.

Length 17 m; draft 2.5 m.

Type: Fishing. MMSI: 266163000.

Date/timePositionNaut miles runAvg speedWind from/ knotsBaromVisibWave heightAir tempDewpointWater temp
2016-Sep-25 00:33N 58°56' E 011°10'0 0.0
2016-Sep-24 22:33N 58°56' E 011°10'0 0.0
2016-Sep-24 21:33N 58°56' E 011°10'0 0.0
2016-Sep-24 19:33N 58°56' E 011°10'0 0.0
2016-Sep-24 18:33N 58°56' E 011°10'0 0.0
2016-Sep-24 17:33N 58°56' E 011°10'0 0.0
2016-Sep-24 16:33N 58°56' E 011°10'0 0.0
2016-Sep-24 14:33N 58°56' E 011°10'0 0.0
2016-Sep-24 12:33N 58°56' E 011°10'0 0.0
2016-Sep-24 10:33N 58°56' E 011°10'0 0.0
2016-Sep-24 09:33N 58°56' E 011°10'0 0.0
2016-Sep-24 03:33N 58°56' E 011°10'0 0.0
2016-Sep-24 02:33N 58°56' E 011°10'0 0.0
2016-Sep-24 01:33N 58°56' E 011°10'0 0.0
2016-Sep-24 00:33N 58°56' E 011°10'0 0.0
2016-Sep-23 19:33N 58°56' E 011°10'0 0.0
2016-Sep-23 17:33N 58°56' E 011°10'0 0.0
2016-Sep-23 16:33N 58°56' E 011°10'0 0.0
2016-Sep-23 15:33N 58°56' E 011°10'0 0.0
2016-Sep-23 13:33N 58°56' E 011°10'0 0.0
2016-Sep-23 09:33N 58°56' E 011°10'0 0.0
2016-Sep-23 06:33N 58°56' E 011°10'0 0.0
2016-Sep-23 04:33N 58°56' E 011°10'0 0.0
2016-Sep-23 03:33N 58°56' E 011°10'0 0.0
2016-Sep-23 02:33N 58°56' E 011°10'0 0.0
2016-Sep-23 01:33N 58°56' E 011°10'0 0.0
2016-Sep-23 00:33N 58°56' E 011°10'0 0.0
2016-Sep-22 23:33N 58°56' E 011°10'0 0.0
2016-Sep-22 20:33N 58°56' E 011°10'0 0.0
2016-Sep-22 12:33N 58°56' E 011°10'0 0.0
2016-Sep-22 04:33N 58°56' E 011°10'0 0.0
2016-Sep-22 03:33N 58°56' E 011°10'0 0.0
2016-Sep-22 00:33N 58°56' E 011°10'0 0.0
2016-Sep-21 23:33N 58°56' E 011°10'0 0.0
2016-Sep-21 22:33N 58°56' E 011°10'0 0.0
2016-Sep-21 19:33N 58°56' E 011°10'0 0.0
2016-Sep-21 16:33N 58°56' E 011°10'33 4.7
2016-Sep-21 09:33N 58°36' E 010°20'1 1.4
2016-Sep-21 08:33N 58°35' E 010°21'4 1.3
2016-Sep-21 05:33N 58°31' E 010°25'3 1.4
2016-Sep-21 03:33N 58°29' E 010°28'1 1.4
2016-Sep-21 02:33N 58°28' E 010°29'5 0.5
2016-Sep-20 17:33N 58°32' E 010°26'4 1.3
2016-Sep-20 14:33N 58°29' E 010°30'1 1.4
2016-Sep-20 13:33N 58°27' E 010°31'6 1.7
2016-Sep-20 10:18N 58°31' E 010°23'3 1.5
2016-Sep-20 08:33N 58°34' E 010°24'1 1.4
2016-Sep-20 07:33N 58°33' E 010°24'7 1.3
2016-Sep-20 02:33N 58°27' E 010°31'3 1.0
2016-Sep-19 23:33N 58°24' E 010°29'11 2.7
2016-Sep-19 19:33N 58°35' E 010°24'2 1.5
2016-Sep-19 18:32N 58°34' E 010°26'3 1.5
2016-Sep-19 16:33N 58°31' E 010°27'5 1.3
2016-Sep-19 12:33N 58°26' E 010°30'2 1.7
2016-Sep-19 11:32N 58°24' E 010°30'14 6.8
2016-Sep-19 09:32N 58°37' E 010°19'2 1.2
2016-Sep-19 07:33N 58°35' E 010°22'1 1.4
2016-Sep-19 06:33N 58°34' E 010°24'5 1.6
2016-Sep-19 03:33N 58°30' E 010°28'2 1.5
2016-Sep-19 02:33N 58°29' E 010°30'3 1.4
2016-Sep-19 00:33N 58°26' E 010°30'10 2.0
2016-Sep-18 19:33N 58°33' E 010°43'27 6.8
2016-Sep-18 15:33N 58°56' E 011°10'0 0.0
2016-Sep-18 14:33N 58°56' E 011°10'0 0.0
2016-Sep-18 10:33N 58°56' E 011°10'0 0.0
2016-Sep-18 09:33N 58°56' E 011°10'0 0.0
2016-Sep-18 02:33N 58°56' E 011°10'0 0.0
2016-Sep-18 01:33N 58°56' E 011°10'0 0.0
2016-Sep-18 00:33N 58°56' E 011°10'0 0.0
2016-Sep-17 22:33N 58°56' E 011°10'0 0.0
2016-Sep-17 21:33N 58°56' E 011°10'0 0.0
2016-Sep-17 20:33N 58°56' E 011°10'0 0.0
2016-Sep-17 19:16N 58°56' E 011°10'0 0.0
2016-Sep-17 13:33N 58°56' E 011°10'0 0.0
2016-Sep-17 12:33N 58°56' E 011°10'0 0.0
2016-Sep-17 10:33N 58°56' E 011°10'0 0.0
2016-Sep-17 09:33N 58°56' E 011°10'0 0.0
2016-Sep-17 08:33N 58°56' E 011°10'0 0.0
2016-Sep-17 07:33N 58°56' E 011°10'0 0.0
2016-Sep-17 05:33N 58°56' E 011°10'0 0.0
2016-Sep-17 04:33N 58°56' E 011°10'0 0.0
2016-Sep-17 00:33N 58°56' E 011°10'0 0.0
2016-Sep-16 17:33N 58°56' E 011°10'0 0.0
2016-Sep-16 15:33N 58°56' E 011°10'0 0.0
2016-Sep-16 12:33N 58°56' E 011°10'0 0.0
2016-Sep-16 09:33N 58°56' E 011°10'0 0.0
2016-Sep-16 07:33N 58°56' E 011°10'0 0.0
2016-Sep-16 03:33N 58°56' E 011°10'0 0.0
2016-Sep-16 02:33N 58°56' E 011°10'0 0.0
2016-Sep-16 00:33N 58°56' E 011°10'0 0.0
2016-Sep-15 22:33N 58°56' E 011°10'0 0.0
2016-Sep-15 21:33N 58°56' E 011°10'0 0.0
2016-Sep-15 20:33N 58°56' E 011°10'0 0.0
2016-Sep-15 18:33N 58°56' E 011°10'0 0.0
2016-Sep-15 12:33N 58°56' E 011°10'0 0.0
2016-Sep-15 11:33N 58°56' E 011°10'0 0.0
2016-Sep-15 04:33N 58°56' E 011°10'0 0.0
2016-Sep-15 03:33N 58°56' E 011°10'0 0.0
2016-Sep-15 01:33N 58°56' E 011°10'  

Dump ship's entire track history